おとっつぁーーーーん!!!!

LUXURY FLIGHT

03-6423-7371

羽田本店:東京都大田区羽田5-11-1
営業時間:10:00~20:00
定休日:毎週 月曜日
セントレア店:愛知県常滑市セントレア1-1
営業時間:10:00~20:00 年中無休

lv

おとっつぁーーーーん!!!!

STAFF BLOG

2019/08/17 おとっつぁーーーーん!!!!

こんにちはーーーーー

 

猛烈な暑さに襲われております!!!

 

img_2681

 

私は朝から、外回りの掃除をしておりましたが、開始早々15分で熱中症になりかけた為

撤収しました…

 

もはや暑さは関係なく、私の体が弱いだけかと…笑

 

これはいかん、

筋トレやっ!!!ダイエットやっ!!!!!!

 

 

 

そんな東京羽田のMETARは…

RJTT 170300Z 18014KT 9999 FEW025 SCT/// 33/25 Q1001 NOSIG RMK 1CU025 A2958

 

ん? 33℃???

おかしいなぁ、体感温度は40℃軽く超えてるくらいなのですが。

羽田の海水温が33℃ってゆー解釈でよろしいでしょうか。笑

んーーー、アホですみません

 

さてさて、本日は「コックピット」と「お父さん」がW主演を果たしたこちらのお写真。

 

img_2680

 

んんーーーーーー、プロをも唸らせる鋭い瞬間を描写した写真です。

 

コックピットの一番美味しいところを、お父さんが持っていってしまった…

そんな見方もありますが、

 

コックピットのメカメカしさを、お父さんが見事に和らげた。

こういう見方もできる非常に深い写真です。

 

ご家族の笑顔と外の大雨が絶妙なバランスで調和している。とも言えます。

 

うむ。写真は深い!!!!

と、個人的に納得した次第です。笑

 

例えスナップ写真でも構図とか本当に難しい…

プロの方や、写真を趣味とされている方を心から尊敬します

 

 

航空関係のお仕事を志すお嬢様がキャプテンだったのですが、

悪天候でも冷静に降ろしてくださったのが印象的でした

 

ぜひまたお近くに来た際には遊びに来てください!!

 

この度のご来店誠にありがとうございました。

次回のご来店も心より楽しみに致しております。

 

「感謝」

 

 

 

 

 

 

 

 

 

 

 

 

TOP